createdAt,value
2022-09-17T00:00:45.820Z,3.03
2022-09-17T00:03:15.827Z,3.10
2022-09-17T00:05:44.246Z,1.97
2022-09-17T00:08:15.015Z,1.90
2022-09-17T00:10:44.687Z,2.60
2022-09-17T00:13:13.334Z,2.07
2022-09-17T00:15:42.348Z,2.40
2022-09-17T00:18:10.496Z,2.47
2022-09-17T00:20:44.604Z,2.20
2022-09-17T00:23:13.653Z,2.90
2022-09-17T00:25:43.088Z,2.40
2022-09-17T00:28:11.559Z,2.10
2022-09-17T00:30:40.893Z,2.40
2022-09-17T00:33:09.422Z,2.40
2022-09-17T00:35:37.461Z,2.27
2022-09-17T00:38:09.036Z,2.80
2022-09-17T00:40:37.260Z,2.20
2022-09-17T00:43:05.656Z,2.50
2022-09-17T00:45:33.742Z,2.60
2022-09-17T00:48:03.562Z,2.60
2022-09-17T00:50:34.424Z,3.20
2022-09-17T00:53:07.939Z,2.27
2022-09-17T00:55:38.584Z,2.43
2022-09-17T00:58:09.656Z,2.20
2022-09-17T01:00:37.785Z,3.00
2022-09-17T01:03:06.186Z,2.63
2022-09-17T01:05:47.295Z,3.03
2022-09-17T01:08:23.450Z,3.20
2022-09-17T01:11:12.317Z,2.60
2022-09-17T01:13:48.653Z,2.80
2022-09-17T01:16:21.268Z,3.50
2022-09-17T01:18:59.234Z,3.10
2022-09-17T01:21:49.135Z,3.17
2022-09-17T01:24:54.570Z,3.20
2022-09-17T01:27:56.659Z,3.30
2022-09-17T01:30:40.421Z,3.20
2022-09-17T01:33:15.232Z,3.57
2022-09-17T01:35:50.531Z,3.23
2022-09-17T01:38:26.976Z,3.47
2022-09-17T01:41:03.327Z,3.23
2022-09-17T01:43:35.945Z,2.97
2022-09-17T01:46:11.372Z,2.43
2022-09-17T01:48:43.151Z,3.67
2022-09-17T01:51:13.073Z,2.80
2022-09-17T01:53:45.662Z,2.60
2022-09-17T01:56:17.534Z,2.77
2022-09-17T01:58:49.832Z,2.90
2022-09-17T02:01:21.256Z,2.70
2022-09-17T02:03:53.544Z,2.90
2022-09-17T02:06:24.196Z,2.70
2022-09-17T02:08:55.055Z,2.47
2022-09-17T02:11:23.780Z,2.67
2022-09-17T02:13:56.035Z,2.63
2022-09-17T02:16:27.062Z,2.43
2022-09-17T02:18:57.636Z,2.13
2022-09-17T02:21:31.504Z,2.20
2022-09-17T02:24:06.422Z,2.83
2022-09-17T02:26:36.566Z,2.00
2022-09-17T02:29:09.400Z,1.87
2022-09-17T02:31:40.742Z,2.20
2022-09-17T02:34:08.843Z,2.80
2022-09-17T02:36:37.113Z,2.80
2022-09-17T02:39:05.783Z,3.00
2022-09-17T02:41:44.157Z,2.43
2022-09-17T02:44:22.384Z,2.40
2022-09-17T02:47:14.038Z,4.00
2022-09-17T02:49:55.102Z,2.97
2022-09-17T02:52:31.853Z,2.70
2022-09-17T02:55:03.766Z,3.67
2022-09-17T02:57:36.069Z,2.73
2022-09-17T03:00:09.570Z,3.23
2022-09-17T03:02:43.429Z,3.10
2022-09-17T03:05:12.187Z,2.70
2022-09-17T03:07:40.304Z,3.33
2022-09-17T03:10:09.052Z,2.60
2022-09-17T03:12:38.631Z,2.50
2022-09-17T03:15:07.988Z,2.40
2022-09-17T03:17:35.992Z,2.00
2022-09-17T03:20:06.292Z,2.57
2022-09-17T03:22:34.387Z,2.70
2022-09-17T03:25:02.457Z,2.43
2022-09-17T03:27:30.767Z,2.63
2022-09-17T03:29:59.558Z,2.60
2022-09-17T03:32:27.649Z,2.33
2022-09-17T03:34:55.868Z,2.60
2022-09-17T03:37:25.348Z,2.67
2022-09-17T03:39:53.426Z,2.40
2022-09-17T03:42:21.560Z,2.57
2022-09-17T03:44:49.748Z,2.63
2022-09-17T03:47:17.842Z,2.37
2022-09-17T03:49:45.873Z,2.57
2022-09-17T03:52:13.998Z,2.40
2022-09-17T03:54:43.588Z,2.03
2022-09-17T03:57:13.298Z,1.77
2022-09-17T03:59:41.438Z,2.70
2022-09-17T04:02:09.618Z,2.37
2022-09-17T04:04:37.986Z,2.60
2022-09-17T04:07:06.230Z,2.50
2022-09-17T04:09:35.381Z,2.20
2022-09-17T04:12:05.357Z,1.93
2022-09-17T04:14:33.426Z,1.97
2022-09-17T04:17:01.591Z,1.90
2022-09-17T04:19:29.670Z,2.90
2022-09-17T04:21:57.934Z,2.57
2022-09-17T04:24:26.074Z,3.40
2022-09-17T04:26:54.074Z,3.00
2022-09-17T04:29:23.533Z,3.20
2022-09-17T04:31:51.549Z,3.77
2022-09-17T04:34:19.563Z,3.30
2022-09-17T04:36:47.612Z,2.97
2022-09-17T04:39:15.701Z,3.60
2022-09-17T04:41:43.806Z,3.10
2022-09-17T04:44:11.837Z,3.00
2022-09-17T04:46:41.223Z,3.00
2022-09-17T04:49:09.949Z,2.77
2022-09-17T04:51:37.978Z,2.40
2022-09-17T04:54:06.211Z,3.10
2022-09-17T04:56:34.334Z,3.40
2022-09-17T04:59:02.374Z,2.80
2022-09-17T05:01:30.567Z,3.03
2022-09-17T05:04:00.299Z,2.40
2022-09-17T05:06:28.424Z,3.07
2022-09-17T05:08:56.428Z,2.87
2022-09-17T05:11:24.490Z,2.50
2022-09-17T05:13:52.588Z,3.40
2022-09-17T05:16:20.994Z,2.90
2022-09-17T05:18:49.594Z,2.50
2022-09-17T05:21:19.282Z,1.80
2022-09-17T05:23:47.876Z,2.27
2022-09-17T05:26:15.902Z,2.73
2022-09-17T05:28:43.935Z,1.90
2022-09-17T05:31:12.194Z,2.33
2022-09-17T05:33:40.318Z,2.37
2022-09-17T05:36:08.496Z,1.53
2022-09-17T05:38:38.320Z,2.30
2022-09-17T05:41:07.312Z,2.23
2022-09-17T05:43:35.376Z,2.60
2022-09-17T05:46:04.076Z,1.93
2022-09-17T05:48:32.243Z,1.90
2022-09-17T05:51:00.542Z,2.40
2022-09-17T05:53:28.625Z,1.97
2022-09-17T05:55:59.668Z,1.40
2022-09-17T05:58:28.701Z,1.37
2022-09-17T06:00:56.706Z,1.77
2022-09-17T06:03:24.835Z,2.03
2022-09-17T06:05:54.829Z,1.67
2022-09-17T06:08:23.080Z,1.23
2022-09-17T06:10:51.256Z,2.40
2022-09-17T06:13:21.371Z,1.60
2022-09-17T06:15:53.399Z,1.50
2022-09-17T06:18:22.011Z,2.00
2022-09-17T06:20:56.417Z,1.70
2022-09-17T06:23:25.225Z,1.50
2022-09-17T06:25:54.866Z,1.90
2022-09-17T06:28:24.430Z,1.40
2022-09-17T06:30:54.550Z,2.13
2022-09-17T06:33:23.010Z,1.40
2022-09-17T06:35:57.845Z,1.40
2022-09-17T06:38:25.934Z,1.63
2022-09-17T06:40:54.280Z,1.70
2022-09-17T06:43:22.626Z,1.90
2022-09-17T06:45:55.842Z,2.10
2022-09-17T06:48:24.454Z,1.83
2022-09-17T06:50:54.364Z,1.90
2022-09-17T06:53:23.052Z,1.93
2022-09-17T06:55:51.385Z,2.27
2022-09-17T06:58:19.558Z,2.00
2022-09-17T07:00:47.854Z,2.27
2022-09-17T07:03:22.499Z,2.30
2022-09-17T07:05:51.350Z,2.60
2022-09-17T07:08:19.417Z,2.23
2022-09-17T07:10:47.539Z,2.90
2022-09-17T07:13:15.860Z,4.43
2022-09-17T07:15:43.953Z,3.10
2022-09-17T07:18:12.866Z,5.43
2022-09-17T07:20:42.394Z,3.73
2022-09-17T07:23:10.479Z,4.47
2022-09-17T07:25:43.177Z,3.57
2022-09-17T07:28:11.232Z,2.23
2022-09-17T07:30:39.249Z,3.50
2022-09-17T07:33:07.765Z,3.63
2022-09-17T07:35:35.911Z,3.13
2022-09-17T07:38:05.341Z,3.63
2022-09-17T07:40:33.529Z,2.23
2022-09-17T07:43:02.232Z,2.10
2022-09-17T07:45:31.414Z,1.97
2022-09-17T07:47:59.466Z,3.00
2022-09-17T07:50:27.742Z,2.30
2022-09-17T07:52:55.854Z,2.90
2022-09-17T07:55:25.335Z,4.50
2022-09-17T07:57:54.253Z,2.77
2022-09-17T08:00:22.461Z,3.03
2022-09-17T08:02:54.719Z,1.30
2022-09-17T08:05:23.178Z,2.77
2022-09-17T08:07:52.139Z,2.10
2022-09-17T08:10:21.982Z,2.83
2022-09-17T08:12:52.123Z,2.57
2022-09-17T08:15:20.513Z,3.23
2022-09-17T08:17:49.127Z,1.10
2022-09-17T08:20:17.884Z,1.80
2022-09-17T08:22:50.003Z,2.10
2022-09-17T08:25:18.511Z,2.13
2022-09-17T08:27:46.643Z,1.50
2022-09-17T08:30:16.334Z,1.83
2022-09-17T08:32:44.577Z,1.63
2022-09-17T08:35:12.777Z,2.37
2022-09-17T08:37:40.795Z,1.37
2022-09-17T08:40:11.675Z,1.50
2022-09-17T08:42:51.593Z,1.40
2022-09-17T08:45:21.715Z,1.70
2022-09-17T08:47:50.193Z,1.97
2022-09-17T08:50:24.492Z,1.53
2022-09-17T08:53:09.296Z,1.90
2022-09-17T08:55:41.611Z,0.87
2022-09-17T08:58:34.032Z,1.00
2022-09-17T09:49:41.230Z,1.13
2022-09-17T10:01:55.673Z,1.40
2022-09-17T10:04:50.228Z,1.60
2022-09-17T10:07:47.396Z,1.20
2022-09-17T10:10:43.935Z,1.83
2022-09-17T10:13:18.931Z,1.10
2022-09-17T10:15:56.296Z,1.73
2022-09-17T10:19:05.076Z,1.70
2022-09-17T10:22:38.061Z,2.00
2022-09-17T10:25:12.111Z,1.40
2022-09-17T10:28:07.824Z,2.13
2022-09-17T10:30:36.435Z,1.70
2022-09-17T10:33:48.577Z,2.13
2022-09-17T10:37:00.544Z,1.00
2022-09-17T10:39:45.856Z,1.03
2022-09-17T10:46:40.261Z,1.10
2022-09-17T10:49:12.472Z,1.47
2022-09-17T10:51:43.116Z,1.57
2022-09-17T10:54:52.925Z,2.17
2022-09-17T10:57:50.069Z,1.97
2022-09-17T11:04:27.276Z,2.57
2022-09-17T11:11:41.923Z,5.00
2022-09-17T11:15:00.005Z,10.70
2022-09-17T11:24:21.069Z,1.67
2022-09-17T11:28:08.432Z,2.07
2022-09-17T11:31:04.947Z,2.13
2022-09-17T11:37:40.341Z,2.07
2022-09-17T11:40:28.680Z,2.40
2022-09-17T11:44:04.839Z,2.03
2022-09-17T11:46:38.406Z,1.60
2022-09-17T11:53:01.791Z,1.97
2022-09-17T11:55:51.883Z,2.37
2022-09-17T11:58:47.289Z,1.50
2022-09-17T12:01:21.563Z,2.07
2022-09-17T12:03:53.427Z,1.40
2022-09-17T12:07:11.008Z,2.00
2022-09-17T12:09:58.264Z,1.73
2022-09-17T12:12:48.911Z,1.63
2022-09-17T12:15:28.504Z,1.77
2022-09-17T12:18:31.715Z,1.40
2022-09-17T12:21:07.417Z,1.40
2022-09-17T12:23:41.962Z,0.90
2022-09-17T12:26:23.224Z,1.53
2022-09-17T12:29:19.719Z,1.03
2022-09-17T12:31:58.383Z,1.63
2022-09-17T12:34:37.030Z,1.80
2022-09-17T12:37:10.126Z,1.73
2022-09-17T12:40:20.467Z,1.40
2022-09-17T12:43:07.537Z,1.57
2022-09-17T12:45:50.730Z,1.60
2022-09-17T12:48:46.784Z,1.73
2022-09-17T12:51:24.998Z,1.43
2022-09-17T12:54:02.370Z,1.53
2022-09-17T12:56:45.594Z,1.07
2022-09-17T12:59:19.510Z,1.10
2022-09-17T13:01:54.124Z,0.70
2022-09-17T13:04:59.396Z,1.20
2022-09-17T13:07:53.524Z,1.07
2022-09-17T13:10:45.767Z,1.93
2022-09-17T13:13:26.626Z,1.53
2022-09-17T13:15:59.613Z,1.27
2022-09-17T13:18:34.836Z,1.20
2022-09-17T13:21:08.208Z,1.60
2022-09-17T13:23:40.816Z,1.10
2022-09-17T13:26:09.959Z,1.00
2022-09-17T13:28:44.581Z,1.27
2022-09-17T13:31:21.016Z,1.83
2022-09-17T13:34:11.831Z,1.50
2022-09-17T13:36:45.144Z,1.73
2022-09-17T13:39:35.491Z,1.27
2022-09-17T13:42:08.256Z,1.57
2022-09-17T13:55:39.552Z,1.40
2022-09-17T13:58:28.345Z,1.20
2022-09-17T14:01:37.390Z,1.50
2022-09-17T14:04:53.962Z,4.60
2022-09-17T14:08:54.063Z,1.90
2022-09-17T14:16:18.535Z,2.97
2022-09-17T14:19:19.506Z,1.10
2022-09-17T14:22:05.645Z,1.40
2022-09-17T14:25:57.332Z,2.10
2022-09-17T14:28:34.233Z,2.43
2022-09-17T14:31:59.651Z,1.60
2022-09-17T14:35:34.004Z,2.23
2022-09-17T14:38:23.167Z,1.70
2022-09-17T14:51:31.139Z,3.40
2022-09-17T14:53:28.929Z,8.53
2022-09-17T14:56:04.590Z,8.60
2022-09-17T14:59:14.708Z,11.50
2022-09-17T15:05:53.446Z,6.60
2022-09-17T15:08:28.557Z,2.00
2022-09-17T15:11:20.363Z,8.67
2022-09-17T15:13:51.713Z,11.87
2022-09-17T15:16:22.020Z,8.70
2022-09-17T15:18:58.550Z,6.67
2022-09-17T15:21:31.377Z,15.17
2022-09-17T15:24:04.850Z,8.70
2022-09-17T15:26:36.737Z,1.37
2022-09-17T15:29:05.898Z,1.57
2022-09-17T15:31:42.642Z,0.90
2022-09-17T15:34:12.904Z,0.80
2022-09-17T15:37:04.901Z,0.80
2022-09-17T15:39:41.585Z,0.70
2022-09-17T15:55:23.555Z,1.63
2022-09-17T16:02:24.888Z,1.60
2022-09-17T16:05:36.171Z,1.23
2022-09-17T16:12:20.782Z,1.30
2022-09-17T16:15:42.141Z,4.77
2022-09-17T16:18:16.896Z,0.80
2022-09-17T16:20:45.269Z,3.77
2022-09-17T16:23:13.717Z,4.13
2022-09-17T16:25:43.350Z,1.50
2022-09-17T16:28:15.249Z,1.40
2022-09-17T16:30:48.032Z,1.00
2022-09-17T16:33:17.837Z,0.97
2022-09-17T16:35:46.324Z,3.20
2022-09-17T16:38:14.834Z,1.80
2022-09-17T16:40:43.984Z,4.03
2022-09-17T16:43:13.744Z,4.30
2022-09-17T16:45:42.112Z,2.60
2022-09-17T16:48:10.502Z,2.20
2022-09-17T16:50:41.522Z,1.30
2022-09-17T16:53:09.817Z,2.30
2022-09-17T16:55:38.194Z,1.83
2022-09-17T16:58:06.681Z,2.10
2022-09-17T17:00:37.413Z,2.83
2022-09-17T17:03:07.113Z,1.53
2022-09-17T17:05:37.910Z,2.27
2022-09-17T17:08:06.951Z,2.43
2022-09-17T17:10:36.082Z,2.90
2022-09-17T17:13:08.916Z,2.37
2022-09-17T17:15:51.216Z,2.20
2022-09-17T17:18:24.783Z,2.50
2022-09-17T17:20:53.140Z,2.10
2022-09-17T17:23:21.712Z,1.10
2022-09-17T17:25:50.387Z,1.73
2022-09-17T17:28:18.586Z,2.90
2022-09-17T17:30:50.318Z,1.73
2022-09-17T17:33:18.755Z,2.40
2022-09-17T17:35:46.988Z,2.50
2022-09-17T17:38:15.238Z,3.50
2022-09-17T17:40:44.438Z,5.83
2022-09-17T17:43:12.966Z,6.50
2022-09-17T17:45:41.436Z,4.77
2022-09-17T17:48:13.639Z,8.67
2022-09-17T17:50:42.253Z,2.43
2022-09-17T17:53:10.488Z,4.97
2022-09-17T17:55:38.617Z,3.40
2022-09-17T17:58:06.892Z,2.40
2022-09-17T18:00:35.137Z,2.67
2022-09-17T18:03:03.521Z,2.03
2022-09-17T18:05:33.277Z,1.90
2022-09-17T18:08:01.542Z,1.47
2022-09-17T18:10:29.778Z,2.37
2022-09-17T18:12:58.297Z,2.30
2022-09-17T18:15:29.630Z,5.60
2022-09-17T18:17:57.838Z,1.97
2022-09-17T18:20:26.056Z,1.30
2022-09-17T18:22:56.709Z,1.27
2022-09-17T18:25:24.914Z,1.20
2022-09-17T18:27:53.145Z,0.97
2022-09-17T18:30:21.783Z,0.70
2022-09-17T18:32:52.493Z,0.60
2022-09-17T18:35:20.688Z,0.70
2022-09-17T18:37:48.825Z,0.60
2022-09-17T18:40:18.747Z,0.50
2022-09-17T18:42:49.280Z,0.60
2022-09-17T18:45:19.222Z,0.63
2022-09-17T18:47:47.647Z,0.60
2022-09-17T18:50:23.695Z,0.70
2022-09-17T18:52:51.845Z,0.50
2022-09-17T18:55:21.506Z,0.50
2022-09-17T18:57:51.322Z,0.47
2022-09-17T19:00:20.687Z,0.40
2022-09-17T19:02:49.447Z,0.50
2022-09-17T19:05:18.383Z,0.70
2022-09-17T19:07:47.628Z,0.53
2022-09-17T19:10:16.645Z,0.60
2022-09-17T19:12:50.311Z,0.57
2022-09-17T19:15:27.608Z,0.57
2022-09-17T19:17:56.597Z,0.50
2022-09-17T19:20:25.370Z,0.60
2022-09-17T19:22:54.194Z,0.60
2022-09-17T19:25:23.659Z,0.50
2022-09-17T19:27:56.146Z,0.67
2022-09-17T19:30:24.619Z,0.60
2022-09-17T19:32:53.516Z,0.60
2022-09-17T19:35:21.813Z,0.57
2022-09-17T19:37:50.780Z,0.70
2022-09-17T19:40:21.717Z,0.73
2022-09-17T19:42:55.252Z,0.70
2022-09-17T19:45:23.980Z,1.00
2022-09-17T19:47:56.527Z,0.80
2022-09-17T19:50:24.888Z,1.03
2022-09-17T19:52:54.751Z,0.63
2022-09-17T19:55:29.548Z,0.97
2022-09-17T19:58:03.863Z,0.80
2022-09-17T20:00:32.276Z,0.80
2022-09-17T20:03:00.584Z,2.23
2022-09-17T20:05:37.831Z,1.73
2022-09-17T20:08:06.567Z,1.40
2022-09-17T20:10:37.787Z,5.87
2022-09-17T20:13:07.494Z,5.30
2022-09-17T20:15:36.403Z,3.30
2022-09-17T20:18:04.793Z,1.50
2022-09-17T20:20:33.235Z,0.90
2022-09-17T20:23:01.473Z,0.97
2022-09-17T20:25:29.638Z,0.73
2022-09-17T20:27:57.873Z,1.10
2022-09-17T20:30:27.624Z,0.90
2022-09-17T20:32:56.240Z,0.80
2022-09-17T20:35:24.440Z,1.20
2022-09-17T20:38:57.198Z,1.57
2022-09-17T20:40:41.209Z,1.13
2022-09-17T20:43:09.917Z,1.90
2022-09-17T20:45:39.569Z,1.63
2022-09-17T20:48:08.080Z,1.93
2022-09-17T20:50:36.307Z,1.20
2022-09-17T20:53:04.611Z,2.60
2022-09-17T20:55:32.850Z,1.10
2022-09-17T20:58:01.269Z,0.93
2022-09-17T21:00:29.585Z,0.90
2022-09-17T21:02:59.254Z,1.33
2022-09-17T21:05:27.609Z,1.40
2022-09-17T21:07:56.280Z,1.10
2022-09-17T21:10:24.873Z,0.93
2022-09-17T21:12:56.276Z,0.87
2022-09-17T21:15:24.548Z,0.90
2022-09-17T21:17:52.878Z,0.90
2022-09-17T21:20:22.651Z,1.00
2022-09-17T21:22:50.905Z,1.00
2022-09-17T21:25:19.395Z,1.93
2022-09-17T21:27:47.737Z,1.50
2022-09-17T21:30:16.414Z,1.13
2022-09-17T21:32:44.670Z,1.17
2022-09-17T21:35:12.997Z,1.07
2022-09-17T21:37:42.630Z,1.23
2022-09-17T21:40:12.021Z,1.00
2022-09-17T21:42:40.317Z,0.97
2022-09-17T21:45:08.781Z,0.80
2022-09-17T21:47:37.020Z,0.93
2022-09-17T21:50:05.979Z,1.20
2022-09-17T21:52:35.846Z,0.90
2022-09-17T21:55:06.237Z,1.00
2022-09-17T21:57:34.410Z,1.00
2022-09-17T22:00:03.087Z,0.70
2022-09-17T22:02:31.593Z,1.20
2022-09-17T22:05:05.120Z,1.00
2022-09-17T22:07:33.486Z,0.77
2022-09-17T22:10:01.761Z,0.70
2022-09-17T22:12:31.622Z,0.97
2022-09-17T22:14:59.870Z,0.87
2022-09-17T22:17:28.322Z,0.80
2022-09-17T22:19:56.612Z,1.00
2022-09-17T22:22:24.961Z,1.00
2022-09-17T22:24:54.796Z,0.57
2022-09-17T22:27:25.224Z,0.60
2022-09-17T22:30:20.983Z,0.70
2022-09-17T22:32:51.310Z,0.93
2022-09-17T22:35:19.745Z,0.80
2022-09-17T22:37:47.950Z,0.50
2022-09-17T22:40:16.447Z,1.00
2022-09-17T22:42:44.930Z,0.80
2022-09-17T22:45:21.582Z,0.80
2022-09-17T22:47:50.088Z,0.80
2022-09-17T22:50:18.931Z,0.53
2022-09-17T22:52:48.717Z,0.60
2022-09-17T22:55:17.436Z,0.60
2022-09-17T22:57:45.778Z,0.50
2022-09-17T23:00:17.730Z,0.50
2022-09-17T23:02:46.513Z,0.60
2022-09-17T23:05:15.098Z,0.47
2022-09-17T23:07:43.551Z,0.40
2022-09-17T23:10:12.132Z,0.50
2022-09-17T23:12:43.102Z,0.53
2022-09-17T23:15:22.013Z,0.50
2022-09-17T23:17:51.873Z,0.40
2022-09-17T23:20:20.332Z,0.40
2022-09-17T23:22:50.523Z,0.50
2022-09-17T23:25:18.896Z,0.47
2022-09-17T23:27:51.498Z,0.47
2022-09-17T23:30:19.934Z,0.70
2022-09-17T23:32:48.105Z,0.50
2022-09-17T23:35:22.951Z,0.60
2022-09-17T23:37:53.092Z,0.50
2022-09-17T23:40:22.222Z,0.53
2022-09-17T23:42:50.481Z,0.70
2022-09-17T23:45:22.626Z,0.40
2022-09-17T23:47:54.063Z,0.57
2022-09-17T23:50:50.642Z,0.60
2022-09-17T23:53:24.013Z,0.50
2022-09-17T23:55:52.867Z,0.50
2022-09-17T23:58:21.256Z,0.60
